Time;durP1;ratioP1;P1;durP2;ratioP2;P2;SDS_P1;SDS_P2;PMS_P1;PMS_P2;Temp;Humidity;BMP_temperature;BMP_pressure;BME280_temperature;BME280_humidity;BME280_pressure;Samples;Min_cycle;Max_cycle;Signal;HPM_P1;HPM_P2
2022/03/02 00:01:05;;;;;;;;;60.75;47.00;;;;;4.87;36.34;99875.56;6264144;27;97457;-63
2022/03/02 00:04:09;;;;;;;;;60.20;46.00;;;;;4.66;37.26;99871.47;6246780;27;99428;-62
2022/03/02 00:07:12;;;;;;;;;63.20;46.40;;;;;4.51;37.43;99865.03;6264879;27;97463;-62
2022/03/02 00:10:18;;;;;;;;;58.00;44.00;;;;;4.35;37.58;99841.75;6245656;27;97456;-64
2022/03/02 00:13:21;;;;;;;;;57.40;45.40;;;;;4.50;37.59;99851.84;6253671;27;97198;-64
2022/03/02 00:16:24;;;;;;;;;57.40;45.00;;;;;4.47;37.75;99854.84;6264916;27;97864;-63
2022/03/02 00:19:27;;;;;;;;;59.75;45.00;;;;;4.40;38.10;99857.31;6246121;27;100280;-62
2022/03/02 00:22:30;;;;;;;;;57.40;44.80;;;;;4.36;37.94;99851.44;6264727;27;97615;-63
2022/03/02 00:25:35;;;;;;;;;61.80;46.20;;;;;4.30;38.35;99854.75;6264198;27;96966;-64
2022/03/02 00:28:38;;;;;;;;;57.67;44.67;;;;;4.31;38.34;99855.59;6263021;27;97505;-63
2022/03/02 00:31:41;;;;;;;;;60.75;46.00;;;;;4.31;38.49;99845.75;6244305;27;97639;-61
2022/03/02 00:34:45;;;;;;;;;62.00;46.00;;;;;4.28;38.56;99848.75;6262906;27;97482;-62
2022/03/02 00:37:48;;;;;;;;;59.75;46.50;;;;;4.23;38.48;99853.72;6223984;27;98052;-62
2022/03/02 00:40:56;;;;;;;;;58.00;45.20;;;;;4.15;39.29;99844.84;6243888;27;98388;-61
2022/03/02 00:43:59;;;;;;;;;62.00;47.40;;;;;4.03;39.30;99844.25;6227276;27;97873;-63
2022/03/02 00:47:06;;;;;;;;;61.40;47.40;;;;;3.98;39.36;99843.03;6262268;27;96445;-63
2022/03/02 00:50:12;;;;;;;;;62.75;48.00;;;;;3.89;39.47;99843.00;6248183;27;98556;-62
2022/03/02 00:53:16;;;;;;;;;62.00;47.00;;;;;3.76;39.78;99839.88;6245396;27;96811;-63
2022/03/02 00:56:20;;;;;;;;;62.00;47.50;;;;;3.69;39.47;99828.16;6235896;28;97805;-64
2022/03/02 00:59:23;;;;;;;;;66.00;50.00;;;;;3.75;39.87;99829.38;6255837;27;97407;-62
2022/03/02 01:02:27;;;;;;;;;66.80;50.00;;;;;3.78;39.72;99829.06;6261133;27;97121;-64
2022/03/02 01:05:30;;;;;;;;;62.60;48.00;;;;;3.79;39.67;99828.91;6241800;27;97575;-63
2022/03/02 01:08:34;;;;;;;;;63.00;49.00;;;;;3.70;39.74;99816.50;6260755;27;98052;-63
2022/03/02 01:11:38;;;;;;;;;63.25;49.50;;;;;3.72;39.53;99817.19;6260543;27;97122;-64
2022/03/02 01:14:42;;;;;;;;;64.75;49.00;;;;;3.72;40.05;99825.16;6260406;27;97119;-63
2022/03/02 01:17:45;;;;;;;;;65.80;49.00;;;;;3.73;39.98;99818.00;6261814;27;97440;-63
2022/03/02 01:20:48;;;;;;;;;68.20;51.20;;;;;3.78;39.53;99810.38;6226193;27;98091;-63
2022/03/02 01:23:53;;;;;;;;;64.80;50.00;;;;;3.76;39.94;99810.53;6261483;27;97143;-63
2022/03/02 01:26:58;;;;;;;;;65.20;51.00;;;;;3.82;39.95;99814.41;6200116;27;1244054;-64
2022/03/02 01:30:05;;;;;;;;;64.50;48.50;;;;;3.87;39.38;99814.78;6262929;27;97119;-62
2022/03/02 01:33:08;;;;;;;;;65.00;50.00;;;;;3.89;39.76;99816.31;6244055;27;96842;-64
2022/03/02 01:36:11;;;;;;;;;66.00;51.40;;;;;3.97;39.02;99802.19;6243766;27;96565;-63
2022/03/02 01:39:14;;;;;;;;;67.00;50.40;;;;;4.03;38.89;99801.56;6262360;27;97422;-61
2022/03/02 01:42:19;;;;;;;;;66.00;50.60;;;;;4.08;38.67;99798.41;6262946;27;97426;-64
2022/03/02 01:45:22;;;;;;;;;68.60;50.60;;;;;4.14;38.95;99797.78;6244146;27;97000;-63
2022/03/02 01:48:25;;;;;;;;;67.80;50.40;;;;;4.13;39.12;99791.59;6244918;27;97022;-62
2022/03/02 01:51:29;;;;;;;;;66.80;51.20;;;;;4.12;38.72;99791.75;6262857;27;97440;-61
2022/03/02 01:54:32;;;;;;;;;64.25;50.00;;;;;4.12;38.60;99789.94;6261624;27;97102;-62
2022/03/02 01:57:40;;;;;;;;;65.20;50.00;;;;;3.86;38.73;99749.91;6261986;27;98132;-64
2022/03/02 02:00:44;;;;;;;;;67.60;50.00;;;;;4.00;38.83;99790.38;6244108;27;97462;-62
2022/03/02 02:03:48;;;;;;;;;67.00;49.50;;;;;3.93;39.35;99790.16;6262682;27;98200;-61
2022/03/02 02:06:51;;;;;;;;;65.00;50.00;;;;;3.99;39.57;99781.53;6244574;27;97094;-62
2022/03/02 02:09:57;;;;;;;;;66.00;50.00;;;;;4.05;39.66;99780.91;6262924;27;96778;-63
2022/03/02 02:13:02;;;;;;;;;66.60;50.00;;;;;4.16;39.58;99785.09;6241891;27;96719;-63
2022/03/02 02:16:07;;;;;;;;;65.00;49.40;;;;;4.14;39.56;99785.28;6230560;27;96930;-62
2022/03/02 02:19:11;;;;;;;;;66.00;49.60;;;;;4.16;39.55;99775.25;6262966;27;97076;-63
2022/03/02 02:22:16;;;;;;;;;64.00;48.00;;;;;4.20;39.47;99791.81;6262392;27;96397;-63
2022/03/02 02:25:19;;;;;;;;;64.50;49.75;;;;;4.16;39.74;99777.09;6243360;27;99636;-62
2022/03/02 02:28:27;;;;;;;;;62.40;48.00;;;;;4.14;39.71;99771.94;6262254;27;98182;-63
2022/03/02 02:31:31;;;;;;;;;62.20;48.20;;;;;4.13;39.77;99770.25;6242657;27;97108;-63
2022/03/02 02:34:34;;;;;;;;;63.20;48.00;;;;;4.11;39.49;99772.25;6261041;27;97434;-64
2022/03/02 02:37:40;;;;;;;;;64.00;48.40;;;;;4.05;39.87;99772.91;6260903;27;97401;-63
2022/03/02 02:40:43;;;;;;;;;66.00;49.00;;;;;4.08;39.68;99777.06;6243596;27;99847;-64
2022/03/02 02:43:47;;;;;;;;;63.00;48.00;;;;;4.13;39.50;99772.94;6261307;27;96540;-62
2022/03/02 02:46:50;;;;;;;;;63.00;46.60;;;;;4.17;39.70;99773.44;6244223;27;97391;-64
2022/03/02 02:49:53;;;;;;;;;62.00;48.00;;;;;4.16;39.41;99772.59;6262243;27;97354;-63
2022/03/02 02:53:00;;;;;;;;;61.00;46.00;;;;;4.11;39.68;99766.06;6262644;27;97052;-63
2022/03/02 02:56:04;;;;;;;;;65.60;49.00;;;;;4.12;39.75;99767.75;6261883;27;96436;-63
2022/03/02 02:59:08;;;;;;;;;66.00;49.00;;;;;4.08;39.94;99761.88;6259544;27;97571;-61
2022/03/02 03:02:11;;;;;;;;;62.00;48.00;;;;;4.09;39.90;99754.72;6224304;27;97273;-63
2022/03/02 03:05:18;;;;;;;;;61.75;46.00;;;;;4.08;40.08;99758.38;6256210;27;97359;-61
2022/03/02 03:08:23;;;;;;;;;58.50;46.00;;;;;4.08;40.04;99759.22;6254113;27;97470;-62
2022/03/02 03:11:26;;;;;;;;;58.80;45.00;;;;;4.06;39.86;99769.19;6260351;27;96997;-62
2022/03/02 03:14:29;;;;;;;;;64.50;48.00;;;;;3.99;39.83;99756.66;6261565;27;96981;-63
2022/03/02 03:17:33;;;;;;;;;63.80;48.60;;;;;3.86;40.13;99762.44;6243044;27;97780;-63
2022/03/02 03:20:37;;;;;;;;;62.40;47.00;;;;;3.82;40.06;99764.56;6261973;27;96576;-62
2022/03/02 03:23:42;;;;;;;;;64.40;48.00;;;;;3.78;40.16;99760.56;6261005;27;97820;-62
2022/03/02 03:26:45;;;;;;;;;59.60;46.00;;;;;3.75;40.71;99762.69;6236935;27;97473;-63
2022/03/02 03:29:50;;;;;;;;;60.00;46.00;;;;;3.67;40.78;99766.13;6260934;27;96563;-63
2022/03/02 03:32:54;;;;;;;;;60.00;46.00;;;;;3.66;40.17;99764.47;6240335;27;98478;-62
2022/03/02 03:35:58;;;;;;;;;60.60;45.40;;;;;3.68;40.44;99754.47;6261004;27;96918;-63
2022/03/02 03:39:03;;;;;;;;;62.00;46.00;;;;;3.68;40.17;99765.16;6261093;27;97454;-63
2022/03/02 03:42:06;;;;;;;;;58.80;46.00;;;;;3.74;40.53;99758.34;6259994;27;96875;-63
2022/03/02 03:45:11;;;;;;;;;60.25;45.00;;;;;3.69;40.33;99757.97;6242972;27;97030;-61
2022/03/02 03:48:14;;;;;;;;;60.25;45.25;;;;;3.59;40.95;99754.59;6261943;27;96966;-63
2022/03/02 03:51:17;;;;;;;;;62.40;47.60;;;;;3.66;40.50;99751.16;6266890;27;96679;-63
2022/03/02 03:54:22;;;;;;;;;61.80;46.00;;;;;3.64;40.51;99749.63;6259635;27;97755;-64
2022/03/02 03:57:25;;;;;;;;;62.50;47.25;;;;;3.62;40.75;99749.75;6261364;27;96969;-64
2022/03/02 04:00:28;;;;;;;;;62.00;47.00;;;;;3.52;40.51;99745.56;6259954;27;96875;-62
2022/03/02 04:03:32;;;;;;;;;64.40;49.00;;;;;3.43;40.33;99753.47;6260267;27;96699;-63
2022/03/02 04:06:35;;;;;;;;;59.25;44.00;;;;;3.36;40.89;99748.94;6260846;27;97008;-63
2022/03/02 04:09:39;;;;;;;;;62.00;46.00;;;;;3.30;40.66;99747.72;6243083;27;97545;-64
2022/03/02 04:12:44;;;;;;;;;64.00;48.00;;;;;3.30;41.06;99739.72;6260934;27;97447;-63
2022/03/02 04:15:47;;;;;;;;;58.00;46.00;;;;;3.09;41.10;99707.22;6260063;27;96496;-62
2022/03/02 04:18:51;;;;;;;;;60.80;47.00;;;;;3.25;40.86;99742.00;6258721;27;97994;-64
2022/03/02 04:21:54;;;;;;;;;63.60;46.80;;;;;3.22;40.75;99739.66;6265051;27;96927;-64
2022/03/02 04:24:58;;;;;;;;;58.00;46.20;;;;;3.18;41.35;99734.75;6264345;27;97011;-63
2022/03/02 04:28:02;;;;;;;;;61.00;47.00;;;;;3.16;40.77;99739.44;6263309;27;97110;-63
2022/03/02 04:31:05;;;;;;;;;60.40;46.00;;;;;3.07;40.98;99724.38;6232984;27;97630;-63
2022/03/02 04:34:09;;;;;;;;;61.50;46.00;;;;;2.95;41.38;99729.91;6245850;27;97758;-63
2022/03/02 04:37:12;;;;;;;;;61.00;46.40;;;;;2.82;41.65;99728.63;6257586;27;98031;-63
2022/03/02 04:40:17;;;;;;;;;59.25;47.00;;;;;2.78;41.60;99727.28;6243386;27;99587;-62
2022/03/02 04:43:20;;;;;;;;;68.20;49.60;;;;;2.79;41.44;99726.25;6263296;27;97474;-62
2022/03/02 04:46:24;;;;;;;;;64.80;49.00;;;;;2.78;41.43;99728.09;6259207;27;98266;-63
2022/03/02 04:49:27;;;;;;;;;66.00;51.20;;;;;2.76;41.81;99727.41;6261345;27;96808;-63
2022/03/02 04:52:30;;;;;;;;;63.80;48.00;;;;;2.83;41.87;99722.31;6242480;27;97352;-63
2022/03/02 04:55:35;;;;;;;;;64.40;49.00;;;;;2.89;41.45;99727.03;6262208;27;96914;-61
2022/03/02 04:58:38;;;;;;;;;61.75;47.50;;;;;2.87;41.63;99732.53;6241121;27;96810;-64
2022/03/02 05:01:41;;;;;;;;;62.20;48.80;;;;;2.78;41.50;99719.28;6243329;27;97466;-64
2022/03/02 05:04:45;;;;;;;;;60.25;47.75;;;;;2.77;41.62;99722.91;6246006;27;97392;-61
2022/03/02 05:07:49;;;;;;;;;60.80;45.20;;;;;2.79;41.50;99718.25;6243580;27;98418;-63
2022/03/02 05:10:53;;;;;;;;;61.40;47.20;;;;;2.74;41.44;99718.72;6263890;27;97128;-63
2022/03/02 05:13:56;;;;;;;;;61.00;46.00;;;;;2.67;41.99;99709.69;6241642;27;97482;-63
2022/03/02 05:17:00;;;;;;;;;64.80;48.80;;;;;2.63;41.82;99710.13;6262191;27;97430;-62
2022/03/02 05:20:04;;;;;;;;;64.00;48.00;;;;;2.58;41.69;99715.91;6243112;27;98474;-62
2022/03/02 05:23:09;;;;;;;;;61.00;48.00;;;;;2.57;42.01;99708.91;6254223;27;98361;-62
2022/03/02 05:26:13;;;;;;;;;64.40;47.80;;;;;2.58;41.92;99716.75;6275181;27;97148;-64
2022/03/02 05:29:17;;;;;;;;;59.75;46.25;;;;;2.55;42.01;99718.84;6262380;27;96989;-64
2022/03/02 05:32:20;;;;;;;;;64.20;48.80;;;;;2.60;41.78;99721.91;6256456;27;96580;-63
2022/03/02 05:35:23;;;;;;;;;61.40;48.40;;;;;2.62;41.90;99711.97;6265952;27;96762;-64
2022/03/02 05:38:27;;;;;;;;;60.60;47.00;;;;;2.64;41.86;99715.28;6260069;27;97114;-64
2022/03/02 05:41:34;;;;;;;;;61.75;48.00;;;;;2.62;42.09;99717.28;6232470;27;97459;-63
2022/03/02 05:44:37;;;;;;;;;64.00;48.00;;;;;2.67;41.64;99715.00;6262085;27;97407;-63
2022/03/02 05:47:43;;;;;;;;;63.00;46.20;;;;;2.73;42.14;99708.25;6233164;27;97689;-65
2022/03/02 05:50:46;;;;;;;;;65.75;48.75;;;;;2.84;42.10;99713.31;6261114;27;96411;-65
2022/03/02 05:53:49;;;;;;;;;60.60;46.00;;;;;2.92;41.60;99724.91;6242839;27;97617;-63
2022/03/02 05:56:54;;;;;;;;;64.00;48.80;;;;;3.04;41.53;99714.84;6276457;27;97515;-66
2022/03/02 05:59:57;;;;;;;;;61.00;46.20;;;;;3.17;41.61;99717.13;6280288;27;97098;-64
2022/03/02 06:03:00;;;;;;;;;58.20;46.20;;;;;3.26;41.42;99724.19;6279387;27;97505;-63
2022/03/02 06:06:04;;;;;;;;;62.00;48.00;;;;;3.39;41.73;99720.13;6261342;27;97406;-64
2022/03/02 06:09:10;;;;;;;;;62.00;47.00;;;;;3.52;41.52;99733.03;6250746;27;97095;-64
2022/03/02 06:12:16;;;;;;;;;62.00;47.40;;;;;3.66;41.56;99720.97;6262496;27;96557;-63
2022/03/02 06:15:19;;;;;;;;;63.60;49.00;;;;;3.77;41.49;99712.69;6241440;27;98836;-64
2022/03/02 06:18:23;;;;;;;;;64.20;48.00;;;;;3.92;41.14;99709.28;6270631;27;96597;-64
2022/03/02 06:21:28;;;;;;;;;65.20;49.80;;;;;4.10;40.74;99714.56;6287526;27;97411;-63
2022/03/02 06:24:33;;;;;;;;;64.60;49.00;;;;;4.24;40.78;99724.63;6283325;27;96840;-64
2022/03/02 06:27:38;;;;;;;;;62.00;46.75;;;;;4.32;40.26;99711.28;6261656;27;97156;-64
2022/03/02 06:30:41;;;;;;;;;62.80;48.00;;;;;4.58;40.37;99713.03;6262477;27;97550;-64
2022/03/02 06:33:45;;;;;;;;;62.00;48.00;;;;;4.72;39.83;99717.72;6260833;27;97445;-66
2022/03/02 06:36:50;;;;;;;;;66.80;48.00;;;;;4.90;39.97;99720.25;6260334;27;96958;-64
2022/03/02 06:39:53;;;;;;;;;65.40;49.00;;;;;5.04;39.47;99715.09;6243872;27;99446;-62
2022/03/02 06:43:04;;;;;;;;;62.40;48.20;;;;;5.22;39.71;99713.13;6243436;27;96788;-64
2022/03/02 06:46:11;;;;;;;;;64.20;49.20;;;;;5.42;38.82;99715.44;6262633;27;97090;-63
2022/03/02 06:49:25;;;;;;;;;64.00;48.00;;;;;5.59;38.12;99717.91;6262536;27;97042;-62
2022/03/02 06:52:33;;;;;;;;;61.50;47.00;;;;;5.72;37.55;99719.25;6262427;27;96885;-63
2022/03/02 06:55:37;;;;;;;;;62.00;48.00;;;;;5.86;37.54;99726.56;6261967;27;96418;-63
2022/03/02 06:58:43;;;;;;;;;66.00;48.80;;;;;5.91;37.25;99714.34;6261901;27;97066;-63
2022/03/02 07:01:52;;;;;;;;;62.00;48.00;;;;;6.18;37.03;99731.84;6261017;27;98047;-64
2022/03/02 07:04:58;;;;;;;;;61.80;46.80;;;;;6.31;36.39;99732.13;6259837;27;97359;-64
2022/03/02 07:08:03;;;;;;;;;61.80;48.00;;;;;6.43;35.96;99729.91;6259893;27;98004;-64
2022/03/02 07:11:06;;;;;;;;;60.40;48.00;;;;;6.41;36.40;99738.09;6260358;27;97146;-62
2022/03/02 07:14:15;;;;;;;;;62.60;46.80;;;;;6.51;35.67;99733.38;6257079;27;96968;-64
2022/03/02 07:17:18;;;;;;;;;65.00;49.00;;;;;6.45;34.83;99726.03;6259830;27;97607;-63
2022/03/02 07:20:21;;;;;;;;;66.50;51.00;;;;;6.59;35.06;99724.47;6259417;27;97328;-65
2022/03/02 07:23:30;;;;;;;;;62.00;48.00;;;;;6.59;35.12;99716.44;6224347;27;98595;-61
2022/03/02 07:26:36;;;;;;;;;63.40;50.00;;;;;6.63;34.80;99724.94;6242700;27;96687;-66
2022/03/02 07:29:40;;;;;;;;;63.60;48.60;;;;;6.69;34.48;99727.75;6273202;27;96701;-65
2022/03/02 07:32:46;;;;;;;;;60.40;48.20;;;;;6.75;34.47;99723.50;6277420;27;97443;-63
2022/03/02 07:35:57;;;;;;;;;63.75;48.00;;;;;6.90;34.33;99727.94;6260868;27;97399;-62
2022/03/02 07:39:01;;;;;;;;;61.60;48.00;;;;;7.10;34.24;99717.59;6287263;27;97923;-64
2022/03/02 07:42:05;;;;;;;;;62.00;48.00;;;;;7.36;33.66;99712.69;6260208;27;97133;-65
2022/03/02 07:45:12;;;;;;;;;63.00;48.00;;;;;7.68;33.72;99718.75;6265563;27;96725;-66
2022/03/02 07:48:15;;;;;;;;;61.00;47.00;;;;;7.80;33.41;99718.13;6279584;27;97464;-66
2022/03/02 07:51:19;;;;;;;;;64.80;49.80;;;;;7.99;33.28;99719.44;6263343;27;96648;-63
2022/03/02 07:54:24;;;;;;;;;63.00;48.00;;;;;8.12;32.84;99714.25;6263546;27;96540;-64
2022/03/02 07:57:30;;;;;;;;;66.40;50.00;;;;;8.09;32.53;99685.09;6265223;27;97012;-64
2022/03/02 08:00:35;;;;;;;;;65.40;49.40;;;;;8.43;32.49;99714.06;6247022;27;97197;-66
2022/03/02 08:03:39;;;;;;;;;63.20;48.00;;;;;8.67;31.95;99715.59;6265488;27;96833;-64
2022/03/02 08:06:44;;;;;;;;;64.25;48.00;;;;;8.90;31.74;99715.44;6246578;27;97413;-65
2022/03/02 08:09:48;;;;;;;;;60.60;48.00;;;;;9.26;31.21;99708.16;6264100;27;97430;-65
2022/03/02 08:12:51;;;;;;;;;64.00;49.00;;;;;10.22;30.11;99703.88;6264910;27;97524;-62
2022/03/02 08:15:57;;;;;;;;;61.50;47.00;;;;;10.70;29.02;99669.66;6264201;27;97478;-65
2022/03/02 08:19:02;;;;;;;;;62.00;46.00;;;;;11.63;28.00;99699.22;6245713;27;96651;-63
2022/03/02 08:22:11;;;;;;;;;62.00;48.00;;;;;12.85;26.67;99684.97;6264293;27;98252;-66
2022/03/02 08:25:18;;;;;;;;;61.40;46.40;;;;;14.24;24.91;99690.88;6242681;27;97527;-64
2022/03/02 08:28:23;;;;;;;;;58.00;45.40;;;;;14.14;24.25;99622.78;6252170;27;96656;-62
2022/03/02 08:31:28;;;;;;;;;56.60;44.80;;;;;14.42;23.90;99685.47;6255260;27;96835;-65
2022/03/02 08:34:34;;;;;;;;;56.00;44.00;;;;;15.05;23.31;99682.38;6243247;27;99550;-63
2022/03/02 08:37:40;;;;;;;;;56.80;44.00;;;;;15.97;22.16;99684.41;6265320;27;97531;-63
2022/03/02 08:40:44;;;;;;;;;54.80;44.00;;;;;16.38;21.98;99682.56;6264806;27;97421;-62
2022/03/02 08:43:49;;;;;;;;;57.00;44.00;;;;;17.07;21.21;99684.25;6265693;27;96470;-63
2022/03/02 08:46:58;;;;;;;;;55.00;41.60;;;;;17.13;21.01;99682.44;6270672;27;96618;-65
2022/03/02 08:50:02;;;;;;;;;55.20;43.80;;;;;17.66;20.31;99671.13;6246727;27;97744;-64
2022/03/02 08:53:07;;;;;;;;;53.25;43.25;;;;;19.64;18.28;99675.19;6282910;27;97099;-66
2022/03/02 08:56:10;;;;;;;;;53.25;42.00;;;;;21.43;17.46;99660.09;6270878;27;96389;-65
2022/03/02 08:59:17;;;;;;;;;46.20;37.60;;;;;23.02;15.76;99663.00;6256999;27;97182;-65
2022/03/02 09:02:24;;;;;;;;;48.00;38.00;;;;;24.05;14.89;99648.94;6264833;27;96405;-64
2022/03/02 09:05:28;;;;;;;;;43.00;36.00;;;;;24.82;13.58;99640.63;6264381;27;96576;-66
2022/03/02 09:08:34;;;;;;;;;48.20;39.00;;;;;25.35;13.46;99639.28;6262415;27;96958;-62
2022/03/02 09:11:38;;;;;;;;;48.20;38.40;;;;;25.32;13.57;99630.78;6262994;27;98130;-66
2022/03/02 09:14:43;;;;;;;;;49.00;40.40;;;;;25.90;13.19;99636.72;6227697;27;97172;-64
2022/03/02 09:17:49;;;;;;;;;43.50;35.75;;;;;25.95;12.87;99613.72;6245714;27;98627;-64
2022/03/02 09:21:00;;;;;;;;;41.80;34.20;;;;;25.78;12.57;99619.81;6255938;27;97487;-64
2022/03/02 09:24:05;;;;;;;;;42.60;34.60;;;;;25.90;12.98;99620.16;6239454;28;97493;-64
2022/03/02 09:27:09;;;;;;;;;46.40;37.00;;;;;25.88;13.22;99606.63;6238556;28;97526;-63
2022/03/02 09:30:13;;;;;;;;;43.80;33.80;;;;;25.42;13.05;99612.09;6228777;27;97411;-65
2022/03/02 09:33:22;;;;;;;;;42.00;35.50;;;;;25.50;13.23;99607.03;6253940;27;96737;-63
2022/03/02 09:36:34;;;;;;;;;43.00;34.00;;;;;25.72;13.00;99608.03;6237711;27;97395;-65
2022/03/02 09:39:37;;;;;;;;;40.50;33.25;;;;;26.28;12.92;99612.53;6238822;28;96625;-64
2022/03/02 09:42:46;;;;;;;;;44.40;35.00;;;;;26.82;12.73;99605.28;6245239;27;99634;-66
2022/03/02 09:45:51;;;;;;;;;34.60;31.00;;;;;27.17;12.25;99598.97;6264250;27;96466;-66
2022/03/02 09:49:02;;;;;;;;;37.67;31.00;;;;;27.36;11.89;99596.81;6264394;27;96366;-68
2022/03/02 09:52:09;;;;;;;;;33.80;30.80;;;;;27.71;11.76;99600.63;6259445;27;96985;-63
2022/03/02 09:55:15;;;;;;;;;38.00;32.60;;;;;27.99;11.91;99601.28;6262891;27;98483;-64
2022/03/02 09:58:22;;;;;;;;;35.75;29.50;;;;;27.67;11.31;99584.97;6262981;27;96516;-66
2022/03/02 10:01:32;;;;;;;;;39.00;32.50;;;;;27.32;11.43;99581.94;6261469;27;96595;-67
2022/03/02 10:04:40;;;;;;;;;40.00;32.00;;;;;26.95;11.88;99572.06;6257469;27;97947;-67
2022/03/02 10:07:53;;;;;;;;;35.25;32.25;;;;;26.31;12.11;99570.44;6262043;27;97634;-67
2022/03/02 10:11:03;;;;;;;;;31.00;28.00;;;;;25.26;12.25;99563.00;6258583;27;97595;-69
2022/03/02 10:14:07;;;;;;;;;25.20;23.20;;;;;24.96;13.08;99562.38;6262099;27;96836;-68
2022/03/02 10:17:12;;;;;;;;;27.00;23.00;;;;;25.54;12.50;99550.06;6258185;27;97306;-64
2022/03/02 10:20:19;;;;;;;;;21.60;17.60;;;;;25.60;12.41;99554.44;6227654;27;97405;-65
2022/03/02 10:23:35;;;;;;;;;25.00;23.00;;;;;25.64;12.67;99525.88;6262037;27;97134;-66
2022/03/02 10:26:50;;;;;;;;;21.00;19.00;;;;;25.42;11.89;99537.56;6262593;27;96812;-64
2022/03/02 10:30:05;;;;;;;;;18.60;18.00;;;;;25.30;12.29;99536.44;6265681;27;97019;-62
2022/03/02 10:33:19;;;;;;;;;22.00;18.80;;;;;24.79;12.63;99530.88;6262614;27;98139;-63
2022/03/02 10:36:27;;;;;;;;;22.50;19.50;;;;;23.88;13.24;99521.91;6264829;27;97176;-64
2022/03/02 10:39:49;;;;;;;;;25.50;23.50;;;;;23.93;13.22;99526.53;6263792;27;97267;-66
2022/03/02 10:42:56;;;;;;;;;23.00;21.60;;;;;23.79;13.56;99520.09;6275985;27;96584;-66
2022/03/02 10:46:01;;;;;;;;;27.20;25.80;;;;;24.12;13.56;99508.09;6254205;27;98413;-64
2022/03/02 10:49:07;;;;;;;;;27.75;24.75;;;;;24.87;13.62;99516.47;6279813;27;97478;-70
2022/03/02 10:52:15;;;;;;;;;24.00;22.00;;;;;25.25;12.60;99504.22;6259492;27;97705;-65
2022/03/02 10:55:20;;;;;;;;;22.00;20.80;;;;;23.98;13.40;99499.75;6268645;27;97296;-64
2022/03/02 10:58:29;;;;;;;;;29.80;26.80;;;;;24.03;13.32;99479.59;6284683;27;96850;-66
2022/03/02 11:01:32;;;;;;;;;25.00;23.00;;;;;24.47;13.44;99473.75;6254570;27;98461;-66
2022/03/02 11:04:39;;;;;;;;;26.40;24.00;;;;;24.99;12.94;99480.94;6247152;27;100058;-65
2022/03/02 11:07:43;;;;;;;;;20.80;20.00;;;;;25.20;12.07;99476.72;6256346;27;97487;-64
2022/03/02 11:10:50;;;;;;;;;24.20;20.60;;;;;25.24;12.49;99468.63;6252714;27;97536;-64
2022/03/02 11:13:55;;;;;;;;;28.00;24.50;;;;;24.99;12.48;99470.72;6263004;27;96443;-66
2022/03/02 11:17:13;;;;;;;;;26.00;24.00;;;;;24.90;13.25;99461.50;6264003;27;96777;-65
2022/03/02 11:20:17;;;;;;;;;27.00;24.60;;;;;25.31;13.05;99456.09;6261062;27;96602;-67
2022/03/02 11:23:24;;;;;;;;;25.33;23.00;;;;;25.81;12.65;99456.22;6250987;27;98365;-65
2022/03/02 11:26:29;;;;;;;;;26.60;23.20;;;;;26.03;12.28;99452.72;6260229;27;97057;-65
2022/03/02 11:29:33;;;;;;;;;24.00;22.00;;;;;26.35;12.31;99443.44;6266983;27;98029;-67
2022/03/02 11:32:37;;;;;;;;;25.60;23.40;;;;;26.54;11.92;99416.44;6265868;27;97528;-64
2022/03/02 11:35:41;;;;;;;;;27.00;24.00;;;;;26.55;11.90;99435.50;6265382;27;97102;-64
2022/03/02 11:38:50;;;;;;;;;23.00;20.00;;;;;26.33;11.96;99421.66;6247564;27;97966;-65
2022/03/02 11:41:56;;;;;;;;;23.75;21.25;;;;;25.99;11.89;99424.91;6265932;27;97499;-64
2022/03/02 11:45:00;;;;;;;;;25.40;21.40;;;;;25.39;12.41;99405.69;6265771;27;97410;-67
2022/03/02 11:48:10;;;;;;;;;21.80;21.00;;;;;25.35;12.14;99401.91;6265865;27;96963;-67
2022/03/02 11:51:18;;;;;;;;;25.60;23.00;;;;;25.09;12.64;99392.47;6246962;27;97808;-66
2022/03/02 11:54:23;;;;;;;;;25.50;22.00;;;;;25.15;12.72;99398.72;6265556;27;96361;-64
2022/03/02 11:57:28;;;;;;;;;27.80;25.40;;;;;25.36;13.10;99399.97;6262934;27;96468;-66
2022/03/02 12:00:32;;;;;;;;;23.40;23.00;;;;;25.64;12.45;99398.03;6265412;27;96874;-66
2022/03/02 12:03:37;;;;;;;;;24.60;22.00;;;;;25.40;12.20;99387.19;6265133;27;96618;-66
2022/03/02 12:06:44;;;;;;;;;23.00;21.60;;;;;25.49;12.75;99390.84;6265155;27;97535;-66
2022/03/02 12:09:49;;;;;;;;;25.00;23.00;;;;;25.64;12.32;99379.53;6265459;27;97031;-63
2022/03/02 12:12:54;;;;;;;;;29.00;25.00;;;;;25.55;12.56;99366.75;6264438;27;97570;-69
2022/03/02 12:16:04;;;;;;;;;21.60;19.00;;;;;25.29;12.71;99363.66;6263255;27;96797;-67
2022/03/02 12:19:21;;;;;;;;;25.00;20.75;;;;;25.28;12.42;99353.75;6233378;27;96936;-67
2022/03/02 12:22:31;;;;;;;;;20.20;18.20;;;;;25.07;12.45;99338.75;6261595;27;97481;-64
2022/03/02 12:25:37;;;;;;;;;22.40;20.00;;;;;25.19;12.45;99342.59;6260925;27;96784;-65
2022/03/02 12:28:54;;;;;;;;;23.60;21.00;;;;;25.08;12.24;99345.88;6250146;27;97486;-63
2022/03/02 12:32:06;;;;;;;;;23.00;22.00;;;;;24.91;12.17;99330.75;6271215;27;97589;-64
2022/03/02 12:35:13;;;;;;;;;24.00;21.00;;;;;24.58;12.11;99329.13;6257405;27;97606;-63
2022/03/02 12:38:17;;;;;;;;;21.50;19.50;;;;;24.21;12.55;99332.78;6264916;27;96456;-61
2022/03/02 12:41:23;;;;;;;;;20.00;18.20;;;;;24.11;12.97;99333.72;6263077;27;97484;-67
2022/03/02 12:44:29;;;;;;;;;22.60;21.00;;;;;24.10;12.98;99331.25;6261900;27;97437;-67
2022/03/02 12:47:33;;;;;;;;;25.00;24.00;;;;;23.74;13.45;99314.47;6261950;27;96530;-64
2022/03/02 12:50:41;;;;;;;;;23.20;21.80;;;;;23.59;13.38;99310.00;6261194;27;97428;-65
2022/03/02 12:53:45;;;;;;;;;24.00;20.00;;;;;23.11;14.01;99247.91;6262730;27;97411;-62
2022/03/02 12:56:50;;;;;;;;;23.60;21.60;;;;;23.43;13.51;99307.72;6260027;27;97274;-64
2022/03/02 12:59:54;;;;;;;;;23.00;22.40;;;;;23.11;13.68;99306.50;6257721;27;97071;-64
2022/03/02 13:02:58;;;;;;;;;23.00;20.20;;;;;22.60;14.01;99288.88;6256357;27;97726;-62
2022/03/02 13:06:07;;;;;;;;;21.00;20.00;;;;;22.44;14.21;99305.50;6261842;27;98119;-61
2022/03/02 13:09:17;;;;;;;;;20.60;18.00;;;;;22.33;14.28;99300.41;6258948;27;96839;-62
2022/03/02 13:12:29;;;;;;;;;14.00;12.50;;;;;22.17;13.85;99296.97;6262044;27;97449;-61
2022/03/02 13:15:38;;;;;;;;;14.60;13.00;;;;;22.11;14.29;99297.28;6230977;27;97188;-63
2022/03/02 13:18:43;;;;;;;;;14.80;13.00;;;;;22.08;14.15;99293.22;6242273;27;96611;-62
2022/03/02 13:21:58;;;;;;;;;15.00;14.00;;;;;21.91;14.14;99292.75;6242638;27;96924;-64
2022/03/02 13:25:06;;;;;;;;;15.00;14.00;;;;;21.79;14.14;99284.88;6262388;27;96617;-63
2022/03/02 13:28:13;;;;;;;;;16.60;14.00;;;;;21.59;14.02;99283.09;6262474;27;96907;-65
2022/03/02 13:31:18;;;;;;;;;14.00;12.00;;;;;21.40;14.63;99281.28;6261480;27;97455;-61
2022/03/02 13:34:22;;;;;;;;;12.20;11.80;;;;;21.25;14.26;99290.41;6263421;27;97509;-67
2022/03/02 13:37:59;;;;;;;;;15.60;13.00;;;;;21.06;14.51;99283.88;6266272;27;97185;-63
2022/03/02 13:41:02;;;;;;;;;14.20;13.80;;;;;20.92;14.87;99283.63;6257715;27;96527;-63
2022/03/02 13:44:24;;;;;;;;;12.00;10.80;;;;;20.87;15.23;99277.34;6263950;27;97480;-64
2022/03/02 13:47:28;;;;;;;;;16.40;15.00;;;;;20.75;15.21;99277.69;6263470;27;97667;-66
2022/03/02 13:50:54;;;;;;;;;13.80;13.00;;;;;20.54;15.14;99276.91;6261071;27;97452;-64
2022/03/02 13:54:00;;;;;;;;;14.00;12.00;;;;;20.18;15.09;99270.63;6263307;27;97540;-64
2022/03/02 13:57:04;;;;;;;;;15.40;13.40;;;;;20.01;15.46;99272.00;6245630;27;97291;-67
2022/03/02 14:00:39;;;;;;;;;15.00;13.00;;;;;19.89;15.44;99262.13;6259520;27;98760;-67
2022/03/02 14:03:44;;;;;;;;;15.25;13.25;;;;;19.75;15.33;99266.50;6206885;28;98448;-66
2022/03/02 14:06:54;;;;;;;;;14.25;14.00;;;;;19.53;15.66;99265.13;6195029;28;97618;-65
2022/03/02 14:10:01;;;;;;;;;16.00;13.60;;;;;19.31;15.87;99263.38;6183126;28;97474;-64
2022/03/02 14:13:06;;;;;;;;;13.60;12.60;;;;;19.22;15.92;99258.72;6197586;28;97825;-62
2022/03/02 14:16:10;;;;;;;;;14.00;12.75;;;;;18.93;15.67;99256.44;6182486;28;98020;-64
2022/03/02 14:19:14;;;;;;;;;16.00;13.00;;;;;19.10;15.80;99261.69;6183265;28;97624;-64